sensor_id;sensor_type;location;lat;lon;timestamp;pressure;altitude;pressure_sealevel;temperature;humidity
71621;BME280;59471;42.254;23.102;2024-03-23T00:53:57;96000.56;;;2.87;75.51
71621;BME280;59471;42.254;23.102;2024-03-23T00:56:23;96000.16;;;3.13;75.63
71621;BME280;59471;42.254;23.102;2024-03-23T00:58:49;95998.81;;;3.18;74.21
71621;BME280;59471;42.254;23.102;2024-03-23T01:01:15;95988.09;;;3.23;74.94
71621;BME280;59471;42.254;23.102;2024-03-23T01:03:41;96004.06;;;2.86;74.99
71621;BME280;59471;42.254;23.102;2024-03-23T01:06:06;96000.94;;;3.04;75.28
71621;BME280;59471;42.254;23.102;2024-03-23T01:08:32;96003.31;;;2.95;75.23
71621;BME280;59471;42.254;23.102;2024-03-23T01:10:59;96002.09;;;2.99;74.54
71621;BME280;59471;42.254;23.102;2024-03-23T01:13:26;96000.06;;;2.93;75.00
71621;BME280;59471;42.254;23.102;2024-03-23T01:15:53;95997.50;;;2.82;75.57
71621;BME280;59471;42.254;23.102;2024-03-23T01:18:20;95999.50;;;2.99;75.53
71621;BME280;59471;42.254;23.102;2024-03-23T01:20:46;95998.84;;;2.97;74.95
71621;BME280;59471;42.254;23.102;2024-03-23T01:23:12;95998.38;;;2.92;74.99
71621;BME280;59471;42.254;23.102;2024-03-23T01:25:37;95997.47;;;2.93;74.82
71621;BME280;59471;42.254;23.102;2024-03-23T01:28:03;96000.16;;;2.92;75.21
71621;BME280;59471;42.254;23.102;2024-03-23T01:30:29;95998.31;;;2.83;74.97
71621;BME280;59471;42.254;23.102;2024-03-23T01:32:55;95998.63;;;2.89;75.16
71621;BME280;59471;42.254;23.102;2024-03-23T01:35:21;96007.09;;;2.91;75.08
71621;BME280;59471;42.254;23.102;2024-03-23T01:37:46;96003.75;;;3.00;75.17
71621;BME280;59471;42.254;23.102;2024-03-23T01:40:12;96000.56;;;2.87;75.24
71621;BME280;59471;42.254;23.102;2024-03-23T01:42:41;95999.16;;;2.83;75.37
71621;BME280;59471;42.254;23.102;2024-03-23T01:45:08;95993.84;;;2.64;75.98
71621;BME280;59471;42.254;23.102;2024-03-23T01:47:35;95993.94;;;2.41;76.36
71621;BME280;59471;42.254;23.102;2024-03-23T01:50:01;95995.06;;;2.48;76.70
71621;BME280;59471;42.254;23.102;2024-03-23T01:52:26;95995.63;;;2.52;76.47
71621;BME280;59471;42.254;23.102;2024-03-23T01:54:53;95981.16;;;2.61;75.86
71621;BME280;59471;42.254;23.102;2024-03-23T01:57:19;95974.53;;;2.68;76.41
71621;BME280;59471;42.254;23.102;2024-03-23T01:59:46;95987.97;;;2.83;75.62
71621;BME280;59471;42.254;23.102;2024-03-23T02:02:12;95989.16;;;2.58;75.96
71621;BME280;59471;42.254;23.102;2024-03-23T02:04:38;95991.81;;;2.46;76.36
71621;BME280;59471;42.254;23.102;2024-03-23T02:07:04;95992.31;;;2.40;76.59
71621;BME280;59471;42.254;23.102;2024-03-23T02:09:32;95991.53;;;2.17;76.77
71621;BME280;59471;42.254;23.102;2024-03-23T02:11:58;95995.63;;;2.20;77.70
71621;BME280;59471;42.254;23.102;2024-03-23T02:14:23;95995.47;;;2.00;77.61
71621;BME280;59471;42.254;23.102;2024-03-23T02:16:49;95999.25;;;2.28;77.43
71621;BME280;59471;42.254;23.102;2024-03-23T02:19:15;96005.56;;;2.36;77.17
71621;BME280;59471;42.254;23.102;2024-03-23T02:21:40;96010.19;;;2.32;77.50
71621;BME280;59471;42.254;23.102;2024-03-23T02:24:06;96007.09;;;2.38;77.13
71621;BME280;59471;42.254;23.102;2024-03-23T02:26:31;96010.00;;;2.45;77.06
71621;BME280;59471;42.254;23.102;2024-03-23T02:28:57;96014.06;;;1.83;78.78
71621;BME280;59471;42.254;23.102;2024-03-23T02:31:22;96007.22;;;1.82;79.43
71621;BME280;59471;42.254;23.102;2024-03-23T02:33:48;96010.63;;;2.05;78.28
71621;BME280;59471;42.254;23.102;2024-03-23T02:36:13;96006.50;;;2.02;77.77
71621;BME280;59471;42.254;23.102;2024-03-23T02:38:39;96008.59;;;2.08;77.74
71621;BME280;59471;42.254;23.102;2024-03-23T02:41:05;96012.81;;;1.98;78.44
71621;BME280;59471;42.254;23.102;2024-03-23T02:43:31;96019.31;;;1.93;78.65
71621;BME280;59471;42.254;23.102;2024-03-23T02:45:57;96019.31;;;1.93;78.71
71621;BME280;59471;42.254;23.102;2024-03-23T02:48:22;96009.59;;;1.74;79.17
71621;BME280;59471;42.254;23.102;2024-03-23T02:50:48;96021.44;;;1.88;79.44
71621;BME280;59471;42.254;23.102;2024-03-23T02:53:14;96024.63;;;1.80;79.14
71621;BME280;59471;42.254;23.102;2024-03-23T02:55:40;96016.94;;;2.01;78.57
71621;BME280;59471;42.254;23.102;2024-03-23T02:58:05;96024.44;;;2.04;78.86
71621;BME280;59471;42.254;23.102;2024-03-23T03:00:31;96023.25;;;2.08;77.71
71621;BME280;59471;42.254;23.102;2024-03-23T03:02:56;96023.41;;;1.95;77.68
71621;BME280;59471;42.254;23.102;2024-03-23T03:05:22;96020.38;;;1.90;78.62
71621;BME280;59471;42.254;23.102;2024-03-23T03:07:47;96010.28;;;1.87;78.34
71621;BME280;59471;42.254;23.102;2024-03-23T03:10:13;96015.00;;;1.71;79.69
71621;BME280;59471;42.254;23.102;2024-03-23T03:12:38;96004.88;;;1.11;80.89
71621;BME280;59471;42.254;23.102;2024-03-23T03:15:04;96012.63;;;1.34;80.82
71621;BME280;59471;42.254;23.102;2024-03-23T03:17:30;96010.25;;;1.20;80.86
71621;BME280;59471;42.254;23.102;2024-03-23T03:19:56;96016.28;;;1.54;80.82
71621;BME280;59471;42.254;23.102;2024-03-23T03:22:22;96015.47;;;1.65;80.16
71621;BME280;59471;42.254;23.102;2024-03-23T03:24:48;96005.63;;;1.58;79.99
71621;BME280;59471;42.254;23.102;2024-03-23T03:27:13;96013.34;;;1.47;80.37
71621;BME280;59471;42.254;23.102;2024-03-23T03:29:39;96010.66;;;1.37;80.62
71621;BME280;59471;42.254;23.102;2024-03-23T03:32:05;96012.88;;;1.76;79.81
71621;BME280;59471;42.254;23.102;2024-03-23T03:34:31;96008.75;;;1.73;79.25
71621;BME280;59471;42.254;23.102;2024-03-23T03:36:57;96010.28;;;1.87;79.36
71621;BME280;59471;42.254;23.102;2024-03-23T03:39:22;96016.41;;;1.86;79.34
71621;BME280;59471;42.254;23.102;2024-03-23T03:41:49;96010.78;;;1.58;79.59
71621;BME280;59471;42.254;23.102;2024-03-23T03:44:15;96012.88;;;1.53;79.70
71621;BME280;59471;42.254;23.102;2024-03-23T03:46:40;96015.81;;;1.60;79.26
71621;BME280;59471;42.254;23.102;2024-03-23T03:49:06;96020.25;;;1.69;78.71
71621;BME280;59471;42.254;23.102;2024-03-23T03:51:31;96016.63;;;1.60;79.03
71621;BME280;59471;42.254;23.102;2024-03-23T03:53:57;96016.16;;;1.55;79.57
71621;BME280;59471;42.254;23.102;2024-03-23T03:56:22;96015.22;;;1.68;79.70
71621;BME280;59471;42.254;23.102;2024-03-23T03:58:48;96010.59;;;1.04;80.90
71621;BME280;59471;42.254;23.102;2024-03-23T04:01:14;96021.19;;;1.34;80.84
71621;BME280;59471;42.254;23.102;2024-03-23T04:03:39;96020.75;;;1.52;80.14
71621;BME280;59471;42.254;23.102;2024-03-23T04:06:09;96019.44;;;1.57;79.85
71621;BME280;59471;42.254;23.102;2024-03-23T04:08:35;96024.59;;;1.57;80.05
71621;BME280;59471;42.254;23.102;2024-03-23T04:11:01;96024.63;;;1.80;78.94
71621;BME280;59471;42.254;23.102;2024-03-23T04:13:27;96024.38;;;1.60;79.24
71621;BME280;59471;42.254;23.102;2024-03-23T04:15:56;96023.91;;;1.44;79.10
71621;BME280;59471;42.254;23.102;2024-03-23T04:18:22;96021.81;;;1.49;79.81
71621;BME280;59471;42.254;23.102;2024-03-23T04:20:51;96022.38;;;1.42;79.98
71621;BME280;59471;42.254;23.102;2024-03-23T04:23:17;96020.34;;;1.23;80.94
71621;BME280;59471;42.254;23.102;2024-03-23T04:25:43;96024.00;;;1.20;80.85
71621;BME280;59471;42.254;23.102;2024-03-23T04:28:08;96027.19;;;1.24;81.46
71621;BME280;59471;42.254;23.102;2024-03-23T04:30:34;96026.63;;;0.85;82.79
71621;BME280;59471;42.254;23.102;2024-03-23T04:32:59;96015.16;;;1.00;82.65
71621;BME280;59471;42.254;23.102;2024-03-23T04:35:26;96027.16;;;1.12;82.61
71621;BME280;59471;42.254;23.102;2024-03-23T04:37:52;96025.97;;;1.16;82.39
71621;BME280;59471;42.254;23.102;2024-03-23T04:40:18;96027.63;;;1.18;82.16
71621;BME280;59471;42.254;23.102;2024-03-23T04:42:44;96028.00;;;1.35;81.91
71621;BME280;59471;42.254;23.102;2024-03-23T04:45:09;96027.63;;;1.29;81.56
71621;BME280;59471;42.254;23.102;2024-03-23T04:47:37;96028.34;;;1.31;81.20
71621;BME280;59471;42.254;23.102;2024-03-23T04:50:04;96017.09;;;1.43;80.47
71621;BME280;59471;42.254;23.102;2024-03-23T04:52:30;96034.47;;;1.52;79.84
71621;BME280;59471;42.254;23.102;2024-03-23T04:54:56;96037.50;;;1.57;80.25
71621;BME280;59471;42.254;23.102;2024-03-23T04:57:21;96038.56;;;1.66;80.22
71621;BME280;59471;42.254;23.102;2024-03-23T04:59:47;96040.59;;;1.74;79.05
71621;BME280;59471;42.254;23.102;2024-03-23T05:02:14;96036.69;;;1.34;81.11
71621;BME280;59471;42.254;23.102;2024-03-23T05:04:39;96035.78;;;1.58;80.92
71621;BME280;59471;42.254;23.102;2024-03-23T05:07:07;96047.63;;;1.49;80.75
71621;BME280;59471;42.254;23.102;2024-03-23T05:09:33;96042.91;;;1.43;81.27
71621;BME280;59471;42.254;23.102;2024-03-23T05:11:59;96047.50;;;1.39;81.12
71621;BME280;59471;42.254;23.102;2024-03-23T05:14:29;96054.78;;;0.99;82.44
71621;BME280;59471;42.254;23.102;2024-03-23T05:16:54;96049.19;;;1.05;83.92
71621;BME280;59471;42.254;23.102;2024-03-23T05:19:21;96046.66;;;1.50;82.11
71621;BME280;59471;42.254;23.102;2024-03-23T05:21:46;96051.50;;;1.55;81.28
71621;BME280;59471;42.254;23.102;2024-03-23T05:24:12;96047.59;;;1.60;82.46
71621;BME280;59471;42.254;23.102;2024-03-23T05:26:38;96041.28;;;1.42;82.65
71621;BME280;59471;42.254;23.102;2024-03-23T05:29:03;96045.72;;;1.51;83.39
71621;BME280;59471;42.254;23.102;2024-03-23T05:31:30;96047.38;;;1.52;83.44
71621;BME280;59471;42.254;23.102;2024-03-23T05:33:56;96048.06;;;1.54;84.15
71621;BME280;59471;42.254;23.102;2024-03-23T05:36:22;96046.78;;;1.71;83.67
71621;BME280;59471;42.254;23.102;2024-03-23T05:38:50;96045.50;;;1.88;82.65
71621;BME280;59471;42.254;23.102;2024-03-23T05:41:15;96044.53;;;2.12;82.13
71621;BME280;59471;42.254;23.102;2024-03-23T05:43:41;96043.34;;;2.16;80.29
71621;BME280;59471;42.254;23.102;2024-03-23T05:46:07;96033.59;;;2.08;79.93
71621;BME280;59471;42.254;23.102;2024-03-23T05:48:35;96048.75;;;2.24;80.87
71621;BME280;59471;42.254;23.102;2024-03-23T05:51:01;96042.06;;;2.53;80.00
71621;BME280;59471;42.254;23.102;2024-03-23T05:53:27;96044.00;;;2.40;79.94
71621;BME280;59471;42.254;23.102;2024-03-23T05:56:02;96039.25;;;2.57;79.14
71621;BME280;59471;42.254;23.102;2024-03-23T05:58:32;96041.28;;;2.74;79.14
71621;BME280;59471;42.254;23.102;2024-03-23T06:00:59;96039.28;;;2.98;77.79
71621;BME280;59471;42.254;23.102;2024-03-23T06:03:26;96038.22;;;3.01;77.51
71621;BME280;59471;42.254;23.102;2024-03-23T06:05:52;96031.63;;;3.18;76.60
71621;BME280;59471;42.254;23.102;2024-03-23T06:08:21;96034.44;;;3.26;77.06
71621;BME280;59471;42.254;23.102;2024-03-23T06:10:48;96035.88;;;3.19;77.68
71621;BME280;59471;42.254;23.102;2024-03-23T06:13:14;96032.91;;;3.44;76.63
71621;BME280;59471;42.254;23.102;2024-03-23T06:15:39;96032.03;;;3.65;75.80
71621;BME280;59471;42.254;23.102;2024-03-23T06:18:05;96032.78;;;3.86;76.64
71621;BME280;59471;42.254;23.102;2024-03-23T06:20:33;96023.38;;;3.85;74.04
71621;BME280;59471;42.254;23.102;2024-03-23T06:22:59;96031.19;;;3.95;74.01
71621;BME280;59471;42.254;23.102;2024-03-23T06:25:25;96026.91;;;3.84;75.24
71621;BME280;59471;42.254;23.102;2024-03-23T06:27:50;96027.84;;;3.74;75.17
71621;BME280;59471;42.254;23.102;2024-03-23T06:30:16;96027.94;;;4.03;74.56
71621;BME280;59471;42.254;23.102;2024-03-23T06:32:41;96033.22;;;3.91;74.19
71621;BME280;59471;42.254;23.102;2024-03-23T06:35:07;96024.81;;;4.09;74.78
71621;BME280;59471;42.254;23.102;2024-03-23T06:37:35;96027.06;;;4.43;72.35
71621;BME280;59471;42.254;23.102;2024-03-23T06:40:01;96018.19;;;4.35;73.15
71621;BME280;59471;42.254;23.102;2024-03-23T06:42:26;96029.78;;;4.51;72.53
71621;BME280;59471;42.254;23.102;2024-03-23T06:44:52;96037.19;;;4.65;73.31
71621;BME280;59471;42.254;23.102;2024-03-23T06:47:17;96033.78;;;4.55;73.25
71621;BME280;59471;42.254;23.102;2024-03-23T06:49:43;96028.03;;;4.61;72.35
71621;BME280;59471;42.254;23.102;2024-03-23T06:52:08;96032.53;;;4.78;72.07
71621;BME280;59471;42.254;23.102;2024-03-23T06:54:34;96029.53;;;5.02;70.76
71621;BME280;59471;42.254;23.102;2024-03-23T06:56:59;96036.03;;;5.26;70.34
71621;BME280;59471;42.254;23.102;2024-03-23T06:59:25;96027.53;;;5.43;69.30
71621;BME280;59471;42.254;23.102;2024-03-23T07:01:50;96023.13;;;5.53;68.47
71621;BME280;59471;42.254;23.102;2024-03-23T07:04:16;96021.38;;;5.81;67.89
71621;BME280;59471;42.254;23.102;2024-03-23T07:06:43;96015.78;;;5.49;69.04
71621;BME280;59471;42.254;23.102;2024-03-23T07:09:09;96017.09;;;5.63;68.86
71621;BME280;59471;42.254;23.102;2024-03-23T07:11:35;96012.41;;;5.66;68.25
71621;BME280;59471;42.254;23.102;2024-03-23T07:14:00;96010.31;;;5.79;68.91
71621;BME280;59471;42.254;23.102;2024-03-23T07:16:29;96003.28;;;5.62;68.93
71621;BME280;59471;42.254;23.102;2024-03-23T07:18:55;95999.66;;;5.73;67.84
71621;BME280;59471;42.254;23.102;2024-03-23T07:21:21;96003.44;;;5.88;66.69
71621;BME280;59471;42.254;23.102;2024-03-23T07:23:47;95997.56;;;5.96;66.85
71621;BME280;59471;42.254;23.102;2024-03-23T07:26:13;95996.56;;;6.24;66.01
71621;BME280;59471;42.254;23.102;2024-03-23T07:28:38;95998.50;;;6.22;69.41
71621;BME280;59471;42.254;23.102;2024-03-23T07:31:11;95977.78;;;6.31;69.05
71621;BME280;59471;42.254;23.102;2024-03-23T07:33:42;95992.72;;;6.64;69.16
71621;BME280;59471;42.254;23.102;2024-03-23T07:36:11;95993.78;;;6.54;67.12
71621;BME280;59471;42.254;23.102;2024-03-23T07:38:37;95984.63;;;6.49;67.40
71621;BME280;59471;42.254;23.102;2024-03-23T07:41:07;95971.31;;;6.70;66.30
71621;BME280;59471;42.254;23.102;2024-03-23T07:43:34;95990.47;;;7.31;64.54
71621;BME280;59471;42.254;23.102;2024-03-23T07:46:03;95985.16;;;7.41;63.86
71621;BME280;59471;42.254;23.102;2024-03-23T07:48:29;95988.50;;;7.59;63.61
71621;BME280;59471;42.254;23.102;2024-03-23T07:51:07;95962.28;;;7.27;63.67
71621;BME280;59471;42.254;23.102;2024-03-23T07:53:34;95977.56;;;7.48;65.05
71621;BME280;59471;42.254;23.102;2024-03-23T07:56:08;95976.84;;;7.72;63.79
71621;BME280;59471;42.254;23.102;2024-03-23T07:58:38;95973.06;;;8.08;63.22
71621;BME280;59471;42.254;23.102;2024-03-23T08:01:08;95972.09;;;8.01;61.74
71621;BME280;59471;42.254;23.102;2024-03-23T08:03:41;95969.94;;;7.97;63.68
71621;BME280;59471;42.254;23.102;2024-03-23T08:06:12;95968.84;;;8.16;63.00
71621;BME280;59471;42.254;23.102;2024-03-23T08:08:40;95973.16;;;8.41;61.35
71621;BME280;59471;42.254;23.102;2024-03-23T08:11:07;95973.88;;;8.51;63.51
71621;BME280;59471;42.254;23.102;2024-03-23T08:13:38;95970.25;;;8.61;62.13
71621;BME280;59471;42.254;23.102;2024-03-23T08:16:04;95965.72;;;8.87;61.44
71621;BME280;59471;42.254;23.102;2024-03-23T08:18:30;95970.75;;;9.13;61.82
71621;BME280;59471;42.254;23.102;2024-03-23T08:23:26;95956.91;;;8.80;61.19
71621;BME280;59471;42.254;23.102;2024-03-23T08:25:57;95950.69;;;8.81;62.34
71621;BME280;59471;42.254;23.102;2024-03-23T08:28:23;95957.22;;;9.18;62.16
71621;BME280;59471;42.254;23.102;2024-03-23T08:30:49;95951.00;;;9.19;62.52
71621;BME280;59471;42.254;23.102;2024-03-23T08:33:15;95949.31;;;9.42;62.40
71621;BME280;59471;42.254;23.102;2024-03-23T08:35:41;95945.59;;;9.37;62.95
71621;BME280;59471;42.254;23.102;2024-03-23T08:38:07;95944.88;;;9.59;61.71
71621;BME280;59471;42.254;23.102;2024-03-23T08:40:33;95941.78;;;9.56;62.34
71621;BME280;59471;42.254;23.102;2024-03-23T08:42:58;95933.59;;;9.50;63.83
71621;BME280;59471;42.254;23.102;2024-03-23T08:45:25;95923.34;;;9.80;60.72
71621;BME280;59471;42.254;23.102;2024-03-23T08:47:51;95926.03;;;9.64;62.31
71621;BME280;59471;42.254;23.102;2024-03-23T08:50:16;95925.81;;;10.13;62.65
71621;BME280;59471;42.254;23.102;2024-03-23T08:52:42;95917.78;;;10.46;61.23
71621;BME280;59471;42.254;23.102;2024-03-23T08:55:08;95920.38;;;10.23;59.34
71621;BME280;59471;42.254;23.102;2024-03-23T08:57:35;95916.16;;;10.44;61.64
71621;BME280;59471;42.254;23.102;2024-03-23T09:00:02;95915.69;;;10.64;59.83
71621;BME280;59471;42.254;23.102;2024-03-23T09:02:27;95913.97;;;10.56;57.74
71621;BME280;59471;42.254;23.102;2024-03-23T09:04:53;95903.88;;;10.68;58.30
71621;BME280;59471;42.254;23.102;2024-03-23T09:07:18;95903.09;;;10.82;57.82
71621;BME280;59471;42.254;23.102;2024-03-23T09:09:44;95894.66;;;11.10;59.05
71621;BME280;59471;42.254;23.102;2024-03-23T09:12:09;95889.50;;;11.46;58.27
71621;BME280;59471;42.254;23.102;2024-03-23T09:14:35;95888.97;;;11.36;56.73
71621;BME280;59471;42.254;23.102;2024-03-23T09:17:00;95876.69;;;11.36;56.45
71621;BME280;59471;42.254;23.102;2024-03-23T09:19:29;95877.34;;;10.86;58.15
71621;BME280;59471;42.254;23.102;2024-03-23T09:21:55;95872.63;;;11.19;58.48
71621;BME280;59471;42.254;23.102;2024-03-23T09:24:21;95875.06;;;11.35;57.49
71621;BME280;59471;42.254;23.102;2024-03-23T09:26:47;95856.72;;;11.35;56.80
71621;BME280;59471;42.254;23.102;2024-03-23T09:29:12;95859.41;;;11.27;55.75
71621;BME280;59471;42.254;23.102;2024-03-23T09:31:39;95848.38;;;11.47;55.32
71621;BME280;59471;42.254;23.102;2024-03-23T09:34:06;95840.38;;;11.70;54.34
71621;BME280;59471;42.254;23.102;2024-03-23T09:36:31;95842.72;;;12.16;56.53
71621;BME280;59471;42.254;23.102;2024-03-23T09:38:57;95838.97;;;12.25;53.11
71621;BME280;59471;42.254;23.102;2024-03-23T09:41:22;95824.47;;;12.08;52.63
71621;BME280;59471;42.254;23.102;2024-03-23T09:43:48;95830.53;;;12.08;51.83
71621;BME280;59471;42.254;23.102;2024-03-23T09:46:14;95821.47;;;11.74;49.81
71621;BME280;59471;42.254;23.102;2024-03-23T09:48:41;95818.66;;;12.34;51.17
71621;BME280;59471;42.254;23.102;2024-03-23T09:51:07;95818.16;;;12.73;48.01
71621;BME280;59471;42.254;23.102;2024-03-23T09:53:34;95815.00;;;12.84;48.68
71621;BME280;59471;42.254;23.102;2024-03-23T09:56:00;95809.22;;;12.39;47.55
71621;BME280;59471;42.254;23.102;2024-03-23T09:58:26;95806.84;;;12.72;49.37
71621;BME280;59471;42.254;23.102;2024-03-23T10:00:51;95801.28;;;12.89;47.65
71621;BME280;59471;42.254;23.102;2024-03-23T10:03:17;95793.31;;;13.10;46.75
71621;BME280;59471;42.254;23.102;2024-03-23T10:05:42;95787.25;;;13.10;44.01
71621;BME280;59471;42.254;23.102;2024-03-23T10:10:41;95766.34;;;13.30;42.72
71621;BME280;59471;42.254;23.102;2024-03-23T10:13:06;95775.28;;;13.42;44.35
71621;BME280;59471;42.254;23.102;2024-03-23T10:15:34;95770.19;;;14.08;42.27
71621;BME280;59471;42.254;23.102;2024-03-23T10:18:21;95774.66;;;14.21;38.12
71621;BME280;59471;42.254;23.102;2024-03-23T10:23:38;95766.59;;;14.82;38.09
71621;BME280;59471;42.254;23.102;2024-03-23T10:26:32;95757.88;;;14.55;40.49
71621;BME280;59471;42.254;23.102;2024-03-23T10:29:01;95753.63;;;14.54;37.50
71621;BME280;59471;42.254;23.102;2024-03-23T10:31:30;95754.41;;;14.22;37.12
71621;BME280;59471;42.254;23.102;2024-03-23T10:33:57;95746.31;;;14.03;37.22
71621;BME280;59471;42.254;23.102;2024-03-23T10:36:23;95742.25;;;14.74;35.26
71621;BME280;59471;42.254;23.102;2024-03-23T10:38:51;95730.94;;;14.53;35.53
71621;BME280;59471;42.254;23.102;2024-03-23T10:41:17;95734.78;;;14.51;35.07
71621;BME280;59471;42.254;23.102;2024-03-23T10:43:48;95731.69;;;14.87;35.12
71621;BME280;59471;42.254;23.102;2024-03-23T10:46:14;95707.72;;;14.95;38.80
71621;BME280;59471;42.254;23.102;2024-03-23T10:48:40;95718.50;;;15.45;36.18
71621;BME280;59471;42.254;23.102;2024-03-23T10:51:09;95720.78;;;15.80;35.12
71621;BME280;59471;42.254;23.102;2024-03-23T10:53:35;95706.34;;;15.38;32.31
71621;BME280;59471;42.254;23.102;2024-03-23T10:56:05;95700.22;;;15.44;34.76
71621;BME280;59471;42.254;23.102;2024-03-23T10:58:43;95689.25;;;15.47;33.91
71621;BME280;59471;42.254;23.102;2024-03-23T11:01:12;95689.63;;;15.50;34.09
71621;BME280;59471;42.254;23.102;2024-03-23T11:03:39;95685.78;;;15.85;37.15
71621;BME280;59471;42.254;23.102;2024-03-23T11:06:10;95676.41;;;15.89;33.19
71621;BME280;59471;42.254;23.102;2024-03-23T11:08:38;95666.38;;;15.34;34.66
71621;BME280;59471;42.254;23.102;2024-03-23T11:11:18;95663.75;;;15.97;31.77
71621;BME280;59471;42.254;23.102;2024-03-23T11:13:51;95669.69;;;16.18;32.04
71621;BME280;59471;42.254;23.102;2024-03-23T11:16:28;95665.69;;;15.52;32.99
71621;BME280;59471;42.254;23.102;2024-03-23T11:19:39;95654.72;;;16.12;34.59
71621;BME280;59471;42.254;23.102;2024-03-23T11:22:04;95647.03;;;16.04;34.32
71621;BME280;59471;42.254;23.102;2024-03-23T11:24:31;95636.47;;;16.29;33.40
71621;BME280;59471;42.254;23.102;2024-03-23T11:26:57;95637.66;;;16.08;35.06
71621;BME280;59471;42.254;23.102;2024-03-23T11:29:27;95632.88;;;16.41;35.23
71621;BME280;59471;42.254;23.102;2024-03-23T11:31:53;95628.22;;;16.62;33.95
71621;BME280;59471;42.254;23.102;2024-03-23T11:34:19;95613.66;;;16.89;33.71
71621;BME280;59471;42.254;23.102;2024-03-23T11:36:46;95622.69;;;17.19;31.01
71621;BME280;59471;42.254;23.102;2024-03-23T11:39:13;95618.72;;;17.40;34.77
71621;BME280;59471;42.254;23.102;2024-03-23T11:41:51;95610.31;;;17.43;29.56
71621;BME280;59471;42.254;23.102;2024-03-23T11:44:18;95608.00;;;17.76;31.19
71621;BME280;59471;42.254;23.102;2024-03-23T11:46:46;95592.16;;;17.58;26.93
71621;BME280;59471;42.254;23.102;2024-03-23T11:49:27;95593.09;;;17.94;29.47
71621;BME280;59471;42.254;23.102;2024-03-23T11:51:56;95588.00;;;17.92;29.50
71621;BME280;59471;42.254;23.102;2024-03-23T11:54:23;95579.91;;;17.75;27.91
71621;BME280;59471;42.254;23.102;2024-03-23T11:57:04;95582.94;;;16.52;26.55
71621;BME280;59471;42.254;23.102;2024-03-23T11:59:38;95577.66;;;16.88;28.32
71621;BME280;59471;42.254;23.102;2024-03-23T12:02:06;95570.50;;;16.77;28.49
71621;BME280;59471;42.254;23.102;2024-03-23T12:04:33;95563.34;;;17.38;27.39
71621;BME280;59471;42.254;23.102;2024-03-23T12:07:19;95559.16;;;16.88;29.27
71621;BME280;59471;42.254;23.102;2024-03-23T12:09:46;95553.59;;;16.78;29.15
71621;BME280;59471;42.254;23.102;2024-03-23T12:12:17;95551.38;;;16.94;32.49
71621;BME280;59471;42.254;23.102;2024-03-23T12:15:01;95552.69;;;17.68;32.78
71621;BME280;59471;42.254;23.102;2024-03-23T12:17:28;95544.47;;;17.46;29.67
71621;BME280;59471;42.254;23.102;2024-03-23T12:19:54;95536.22;;;17.01;29.45
71621;BME280;59471;42.254;23.102;2024-03-23T12:22:23;95537.69;;;17.38;29.94
71621;BME280;59471;42.254;23.102;2024-03-23T12:24:49;95521.41;;;18.12;28.92
71621;BME280;59471;42.254;23.102;2024-03-23T12:27:14;95525.56;;;17.85;23.72
71621;BME280;59471;42.254;23.102;2024-03-23T12:29:40;95527.13;;;17.50;26.34
71621;BME280;59471;42.254;23.102;2024-03-23T12:32:13;95511.97;;;17.93;26.43
71621;BME280;59471;42.254;23.102;2024-03-23T12:34:40;95514.38;;;18.06;29.16
71621;BME280;59471;42.254;23.102;2024-03-23T12:37:06;95506.41;;;18.70;28.10
71621;BME280;59471;42.254;23.102;2024-03-23T12:39:32;95506.09;;;18.66;27.22
71621;BME280;59471;42.254;23.102;2024-03-23T12:41:57;95502.78;;;18.88;26.79
71621;BME280;59471;42.254;23.102;2024-03-23T12:44:23;95486.53;;;18.44;26.63
71621;BME280;59471;42.254;23.102;2024-03-23T12:46:48;95494.91;;;18.93;26.43
71621;BME280;59471;42.254;23.102;2024-03-23T12:49:14;95485.72;;;18.84;27.60
71621;BME280;59471;42.254;23.102;2024-03-23T12:51:48;95487.38;;;19.02;27.39
71621;BME280;59471;42.254;23.102;2024-03-23T12:54:19;95484.00;;;19.06;27.21
71621;BME280;59471;42.254;23.102;2024-03-23T12:56:45;95469.94;;;19.06;27.27
71621;BME280;59471;42.254;23.102;2024-03-23T12:59:11;95469.47;;;19.26;27.22
71621;BME280;59471;42.254;23.102;2024-03-23T13:01:38;95466.47;;;19.22;26.76
71621;BME280;59471;42.254;23.102;2024-03-23T13:04:04;95472.75;;;18.99;25.09
71621;BME280;59471;42.254;23.102;2024-03-23T13:06:29;95465.78;;;18.81;27.32
71621;BME280;59471;42.254;23.102;2024-03-23T13:09:02;95462.38;;;19.14;25.85
71621;BME280;59471;42.254;23.102;2024-03-23T13:11:28;95452.03;;;18.15;26.81
71621;BME280;59471;42.254;23.102;2024-03-23T13:13:54;95446.78;;;18.72;27.44
71621;BME280;59471;42.254;23.102;2024-03-23T13:16:20;95440.75;;;18.08;26.76
71621;BME280;59471;42.254;23.102;2024-03-23T13:18:46;95440.78;;;17.61;27.29
71621;BME280;59471;42.254;23.102;2024-03-23T13:21:11;95436.06;;;18.39;28.16
71621;BME280;59471;42.254;23.102;2024-03-23T13:23:37;95434.59;;;18.88;29.37
71621;BME280;59471;42.254;23.102;2024-03-23T13:26:05;95433.19;;;19.31;30.10
71621;BME280;59471;42.254;23.102;2024-03-23T13:28:30;95427.44;;;19.56;29.16
71621;BME280;59471;42.254;23.102;2024-03-23T13:30:56;95429.97;;;19.46;29.62
71621;BME280;59471;42.254;23.102;2024-03-23T13:33:29;95427.84;;;19.48;28.92
71621;BME280;59471;42.254;23.102;2024-03-23T13:35:55;95420.94;;;19.13;30.03
71621;BME280;59471;42.254;23.102;2024-03-23T13:38:24;95419.88;;;19.48;28.81
71621;BME280;59471;42.254;23.102;2024-03-23T13:43:20;95417.06;;;17.90;28.18
71621;BME280;59471;42.254;23.102;2024-03-23T13:45:52;95419.00;;;18.35;29.82
71621;BME280;59471;42.254;23.102;2024-03-23T13:48:19;95403.63;;;18.48;29.46
71621;BME280;59471;42.254;23.102;2024-03-23T13:50:46;95390.56;;;19.04;29.52
71621;BME280;59471;42.254;23.102;2024-03-23T13:53:14;95404.09;;;19.58;30.58
71621;BME280;59471;42.254;23.102;2024-03-23T13:55:47;95405.03;;;19.86;31.21
71621;BME280;59471;42.254;23.102;2024-03-23T13:58:15;95397.81;;;20.25;29.28